Time;durP1;ratioP1;P1;durP2;ratioP2;P2;SDS_P1;SDS_P2;PMS_P1;PMS_P2;Temp;Humidity;BMP_temperature;BMP_pressure;BME280_temperature;BME280_humidity;BME280_pressure;Samples;Min_cycle;Max_cycle;Signal;HPM_P1;HPM_P2
2022/05/01 00:00:09;;;;;;;3.08;1.20;;;11.00;99.90;;;;;;5041468;28;20067;-75
2022/05/01 00:02:34;;;;;;;3.05;1.23;;;11.00;99.90;;;;;;5037170;28;20060;-74
2022/05/01 00:05:01;;;;;;;2.22;1.05;;;10.90;99.90;;;;;;5039947;28;20395;-74
2022/05/01 00:07:27;;;;;;;6.03;1.73;;;10.90;99.90;;;;;;5041859;28;20025;-75
2022/05/01 00:09:53;;;;;;;3.47;1.50;;;11.00;99.90;;;;;;5035584;28;20033;-75
2022/05/01 00:12:19;;;;;;;2.90;1.48;;;11.00;99.90;;;;;;5043474;28;20032;-74
2022/05/01 00:14:45;;;;;;;3.47;1.50;;;11.00;99.90;;;;;;5043748;28;20021;-74
2022/05/01 00:17:10;;;;;;;2.10;1.20;;;11.00;99.90;;;;;;5049950;28;20025;-75
2022/05/01 00:19:36;;;;;;;2.85;1.50;;;11.10;99.90;;;;;;5050842;28;20033;-75
2022/05/01 00:22:01;;;;;;;5.43;1.42;;;11.00;99.90;;;;;;5045257;28;20079;-75
2022/05/01 00:24:27;;;;;;;2.72;1.45;;;10.90;99.90;;;;;;5039741;28;20036;-74
2022/05/01 00:26:53;;;;;;;3.15;1.10;;;10.80;99.90;;;;;;5047535;28;20461;-74
2022/05/01 00:29:19;;;;;;;3.10;1.40;;;10.80;99.90;;;;;;5036176;28;20029;-74
2022/05/01 00:31:45;;;;;;;3.10;1.60;;;10.90;99.90;;;;;;5042424;28;20036;-75
2022/05/01 00:36:54;;;;;;;1.85;1.00;;;10.70;99.90;;;;;;5033067;28;20048;-74
2022/05/01 00:39:20;;;;;;;2.70;1.20;;;10.90;99.90;;;;;;5030182;28;20028;-73
2022/05/01 00:41:46;;;;;;;3.40;1.65;;;10.80;99.90;;;;;;5041433;28;20032;-74
2022/05/01 00:44:19;;;;;;;4.53;1.02;;;11.00;99.90;;;;;;5042753;28;20044;-75
2022/05/01 00:46:47;;;;;;;2.80;1.40;;;11.00;99.90;;;;;;5043452;28;20028;-74
2022/05/01 00:49:16;;;;;;;1.88;0.90;;;10.90;99.90;;;;;;5041977;28;20211;-75
2022/05/01 00:51:47;;;;;;;3.58;1.27;;;10.80;99.90;;;;;;5039908;28;20086;-75
2022/05/01 00:54:16;;;;;;;1.77;1.00;;;10.60;99.90;;;;;;5035751;28;20048;-74
2022/05/01 00:56:44;;;;;;;2.97;1.00;;;10.70;99.90;;;;;;5043154;28;20062;-74
2022/05/01 00:59:11;;;;;;;1.88;0.88;;;10.50;99.90;;;;;;5041311;28;20029;-75
2022/05/01 01:01:40;;;;;;;1.52;0.80;;;10.50;99.90;;;;;;5046815;28;20053;-75
2022/05/01 01:04:05;;;;;;;2.65;1.02;;;10.60;99.90;;;;;;5039287;28;20037;-74
2022/05/01 01:06:31;;;;;;;1.63;0.82;;;10.50;99.90;;;;;;5029869;28;20025;-74
2022/05/01 01:08:57;;;;;;;2.47;0.80;;;10.60;99.90;;;;;;5033327;28;20040;-74
2022/05/01 01:11:22;;;;;;;2.13;0.65;;;10.30;99.90;;;;;;5033861;28;20041;-74
2022/05/01 01:13:49;;;;;;;1.50;0.60;;;10.30;99.90;;;;;;5046093;28;20116;-75
2022/05/01 01:16:15;;;;;;;1.33;0.70;;;10.50;99.90;;;;;;5034835;28;20448;-74
2022/05/01 01:18:40;;;;;;;1.50;0.82;;;10.60;99.90;;;;;;5033352;28;20055;-74
2022/05/01 01:21:11;;;;;;;1.52;0.70;;;10.40;99.90;;;;;;5041728;28;20029;-74
2022/05/01 01:23:41;;;;;;;1.80;1.00;;;10.60;99.90;;;;;;5032590;28;20045;-75
2022/05/01 01:26:09;;;;;;;2.45;0.77;;;10.50;99.90;;;;;;5037250;28;20233;-74
2022/05/01 01:28:39;;;;;;;1.65;0.70;;;10.50;99.90;;;;;;5042050;28;20025;-74
2022/05/01 01:33:51;;;;;;;2.20;0.80;;;10.50;99.90;;;;;;5044532;28;20048;-74
2022/05/01 01:36:20;;;;;;;2.85;1.42;;;10.70;99.90;;;;;;5035992;28;20044;-74
2022/05/01 01:38:46;;;;;;;2.08;1.10;;;10.50;99.90;;;;;;5039086;28;20030;-75
2022/05/01 01:41:13;;;;;;;2.88;1.13;;;10.80;99.90;;;;;;5033721;28;20534;-74
2022/05/01 01:43:42;;;;;;;2.58;1.00;;;11.00;99.90;;;;;;5048404;28;20044;-76
2022/05/01 01:46:08;;;;;;;2.80;1.15;;;11.00;99.90;;;;;;5038995;28;20033;-75
2022/05/01 01:48:33;;;;;;;1.45;1.00;;;10.80;99.90;;;;;;5040484;28;20037;-74
2022/05/01 01:51:06;;;;;;;2.05;1.08;;;10.90;99.90;;;;;;5042812;28;20052;-74
2022/05/01 01:53:35;;;;;;;2.67;1.30;;;10.90;99.90;;;;;;5041865;28;20021;-74
2022/05/01 01:56:02;;;;;;;2.80;1.40;;;11.00;99.90;;;;;;5042372;28;20032;-75
2022/05/01 01:58:29;;;;;;;2.50;1.30;;;10.80;99.90;;;;;;5041745;28;20090;-74
2022/05/01 02:00:57;;;;;;;3.05;1.20;;;10.60;99.90;;;;;;5038473;28;20029;-74
2022/05/01 02:03:23;;;;;;;4.75;1.27;;;10.70;99.90;;;;;;5032200;28;20080;-74
2022/05/01 02:05:49;;;;;;;3.17;1.70;;;10.70;99.90;;;;;;5042655;28;20025;-75
2022/05/01 02:08:16;;;;;;;2.60;1.10;;;10.80;99.90;;;;;;5042462;28;20025;-74
2022/05/01 02:10:44;;;;;;;2.30;1.15;;;10.80;99.90;;;;;;5040072;28;20108;-74
2022/05/01 02:13:10;;;;;;;1.83;1.08;;;10.70;99.90;;;;;;5035966;28;20396;-74
2022/05/01 02:15:36;;;;;;;2.17;1.05;;;10.60;99.90;;;;;;5044921;28;20037;-74
2022/05/01 02:18:03;;;;;;;2.03;1.30;;;10.70;99.90;;;;;;5038182;28;20398;-74
2022/05/01 02:23:14;;;;;;;2.55;1.27;;;10.50;99.90;;;;;;5037525;28;20064;-74
2022/05/01 02:25:40;;;;;;;1.42;0.85;;;10.50;99.90;;;;;;5040961;28;20033;-75
2022/05/01 02:28:06;;;;;;;4.22;1.48;;;10.50;99.90;;;;;;5049032;28;20078;-74
2022/05/01 02:30:32;;;;;;;3.90;1.60;;;10.60;99.90;;;;;;5038142;28;20044;-74
2022/05/01 02:32:57;;;;;;;2.28;1.30;;;10.50;99.90;;;;;;5039729;28;20436;-74
2022/05/01 02:35:23;;;;;;;4.78;1.38;;;10.20;99.90;;;;;;5041274;28;20041;-75
2022/05/01 02:37:49;;;;;;;3.33;1.60;;;10.40;99.90;;;;;;5038551;28;20083;-75
2022/05/01 02:40:14;;;;;;;2.72;1.48;;;10.50;99.90;;;;;;5036964;28;21892;-75
2022/05/01 02:42:40;;;;;;;3.55;1.70;;;10.40;99.90;;;;;;5038079;28;20444;-74
2022/05/01 02:45:06;;;;;;;1.80;1.10;;;10.10;99.90;;;;;;5044739;28;20079;-76
2022/05/01 02:47:33;;;;;;;2.45;1.20;;;10.00;99.90;;;;;;5040122;28;20064;-75
2022/05/01 02:50:00;;;;;;;2.17;1.17;;;10.10;99.90;;;;;;5039723;28;20025;-74
2022/05/01 02:52:25;;;;;;;3.95;1.67;;;9.90;99.90;;;;;;5036543;28;20049;-75
2022/05/01 02:54:51;;;;;;;3.08;1.55;;;9.70;99.90;;;;;;5039354;28;20072;-75
2022/05/01 02:57:16;;;;;;;3.72;2.15;;;9.80;99.90;;;;;;5021668;28;20103;-74
2022/05/01 02:59:42;;;;;;;3.03;1.60;;;9.90;99.90;;;;;;5023039;28;20065;-74
2022/05/01 03:02:08;;;;;;;3.13;1.52;;;9.80;99.90;;;;;;5031175;28;20079;-74
2022/05/01 03:04:35;;;;;;;4.13;1.88;;;9.80;99.90;;;;;;5028882;28;20069;-73
2022/05/01 03:07:04;;;;;;;2.80;1.48;;;10.00;99.90;;;;;;5042382;28;20117;-73
2022/05/01 03:09:30;;;;;;;4.38;1.67;;;9.90;99.90;;;;;;5034388;28;20030;-73
2022/05/01 03:11:55;;;;;;;2.90;1.70;;;9.90;99.90;;;;;;5042755;28;20029;-74
2022/05/01 03:14:21;;;;;;;2.97;1.50;;;10.00;99.90;;;;;;5034300;28;20592;-73
2022/05/01 03:16:47;;;;;;;4.22;1.83;;;9.90;99.90;;;;;;5037031;28;20062;-74
2022/05/01 03:22:15;;;;;;;2.90;1.33;;;10.10;99.90;;;;;;5034286;28;20497;-74
2022/05/01 03:24:42;;;;;;;2.08;1.40;;;10.10;99.90;;;;;;5034432;28;20125;-73
2022/05/01 03:27:09;;;;;;;3.40;1.50;;;10.10;99.90;;;;;;5038203;28;20452;-75
2022/05/01 03:29:36;;;;;;;3.25;1.40;;;10.20;99.90;;;;;;5030512;28;20088;-73
2022/05/01 03:32:07;;;;;;;3.67;1.30;;;10.20;99.90;;;;;;5041079;28;20040;-75
2022/05/01 03:34:33;;;;;;;2.80;1.38;;;10.10;99.90;;;;;;5028407;28;20117;-74
2022/05/01 03:36:58;;;;;;;3.53;1.92;;;10.20;99.90;;;;;;5041179;28;20040;-74
2022/05/01 03:39:24;;;;;;;3.78;1.77;;;10.30;99.90;;;;;;5040853;28;20029;-73
2022/05/01 03:41:50;;;;;;;3.88;2.20;;;10.30;99.90;;;;;;5034924;28;20025;-73
2022/05/01 03:44:15;;;;;;;2.40;1.50;;;10.30;99.90;;;;;;5034095;28;20087;-74
2022/05/01 03:46:41;;;;;;;3.65;1.95;;;10.30;99.90;;;;;;5035918;28;20107;-73
2022/05/01 03:49:07;;;;;;;6.10;1.83;;;10.40;99.90;;;;;;5009708;28;20029;-73
2022/05/01 03:51:33;;;;;;;3.40;1.98;;;10.40;99.90;;;;;;5023938;28;20471;-73
2022/05/01 03:54:03;;;;;;;3.85;2.35;;;10.40;99.90;;;;;;5030903;28;20047;-75
2022/05/01 03:56:35;;;;;;;5.55;2.25;;;10.40;99.90;;;;;;5033600;28;20070;-73
2022/05/01 03:59:04;;;;;;;5.20;2.30;;;10.50;99.90;;;;;;5030031;28;20029;-74
2022/05/01 04:01:30;;;;;;;4.38;2.55;;;10.50;99.90;;;;;;5033921;28;20037;-73
2022/05/01 04:03:56;;;;;;;4.18;2.08;;;10.40;99.90;;;;;;5017366;28;20040;-74
2022/05/01 04:06:22;;;;;;;6.18;2.92;;;10.40;99.90;;;;;;5035477;28;20040;-73
2022/05/01 04:08:48;;;;;;;3.97;2.30;;;10.30;99.90;;;;;;5034415;28;20043;-73
2022/05/01 04:11:15;;;;;;;4.75;2.80;;;10.30;99.90;;;;;;5031192;28;20886;-73
2022/05/01 04:13:41;;;;;;;4.07;2.22;;;10.40;99.90;;;;;;5024570;28;20033;-74
2022/05/01 04:16:07;;;;;;;3.75;2.22;;;10.50;99.90;;;;;;5035305;28;20037;-73
2022/05/01 04:18:34;;;;;;;4.30;2.60;;;10.40;99.90;;;;;;5022915;28;20044;-74
2022/05/01 04:21:01;;;;;;;3.92;2.63;;;10.40;99.90;;;;;;5039754;28;20115;-73
2022/05/01 04:23:26;;;;;;;4.95;3.00;;;10.50;99.90;;;;;;5033404;28;20048;-74
2022/05/01 04:25:53;;;;;;;4.82;2.88;;;10.50;99.90;;;;;;5038034;28;20036;-73
2022/05/01 04:28:19;;;;;;;3.80;2.25;;;10.50;99.90;;;;;;5030117;28;20486;-73
2022/05/01 04:30:46;;;;;;;3.70;2.30;;;10.40;99.90;;;;;;5031714;28;20081;-73
2022/05/01 04:33:14;;;;;;;5.35;2.78;;;10.40;99.90;;;;;;5034316;28;20033;-73
2022/05/01 04:35:42;;;;;;;4.13;2.85;;;10.40;99.90;;;;;;5041516;28;20044;-74
2022/05/01 04:38:14;;;;;;;4.22;2.42;;;10.30;99.90;;;;;;5039836;28;20518;-74
2022/05/01 04:40:41;;;;;;;3.75;2.13;;;10.50;99.90;;;;;;5038001;28;20086;-74
2022/05/01 04:43:18;;;;;;;4.07;2.50;;;10.40;99.90;;;;;;5035607;28;20124;-74
2022/05/01 04:45:46;;;;;;;3.80;2.15;;;10.50;99.90;;;;;;5039609;28;20071;-74
2022/05/01 04:48:13;;;;;;;5.90;2.67;;;10.50;99.90;;;;;;5037428;28;20069;-73
2022/05/01 04:50:40;;;;;;;7.22;3.58;;;10.50;99.90;;;;;;5020759;28;21459;-73
2022/05/01 04:53:07;;;;;;;5.15;2.40;;;10.50;99.90;;;;;;5025596;28;20102;-74
2022/05/01 04:55:33;;;;;;;4.00;2.00;;;10.50;99.90;;;;;;5035912;28;20101;-74
2022/05/01 04:57:59;;;;;;;3.95;1.90;;;10.60;99.90;;;;;;5035404;28;20041;-74
2022/05/01 05:00:26;;;;;;;4.35;2.28;;;10.50;99.90;;;;;;5045311;28;20434;-74
2022/05/01 05:02:54;;;;;;;4.78;2.00;;;10.50;99.90;;;;;;5036565;28;20049;-74
2022/05/01 05:05:21;;;;;;;3.85;1.90;;;10.60;99.90;;;;;;5037557;28;20359;-73
2022/05/01 05:07:47;;;;;;;3.63;1.75;;;10.60;99.90;;;;;;5035243;28;20099;-73
2022/05/01 05:10:14;;;;;;;5.25;1.90;;;10.70;99.90;;;;;;5035976;28;20029;-75
2022/05/01 05:12:45;;;;;;;3.13;1.70;;;10.60;99.90;;;;;;5030250;28;20518;-73
2022/05/01 05:15:13;;;;;;;4.22;1.80;;;10.60;99.90;;;;;;5033728;28;20038;-73
2022/05/01 05:17:39;;;;;;;3.78;2.35;;;10.60;99.90;;;;;;5029515;28;20096;-74
2022/05/01 05:20:07;;;;;;;6.47;2.65;;;10.60;99.90;;;;;;5025912;28;20062;-73
2022/05/01 05:22:33;;;;;;;3.33;1.92;;;10.70;99.90;;;;;;5030885;28;20032;-73
2022/05/01 05:24:58;;;;;;;6.50;3.53;;;10.70;99.90;;;;;;5031903;28;21036;-74
2022/05/01 05:27:27;;;;;;;7.95;4.97;;;10.70;99.90;;;;;;5034267;28;20040;-73
2022/05/01 05:29:57;;;;;;;4.60;2.50;;;10.80;99.90;;;;;;5028010;28;20036;-73
2022/05/01 05:32:25;;;;;;;4.60;2.40;;;10.90;99.90;;;;;;5040102;28;20068;-73
2022/05/01 05:34:51;;;;;;;5.50;2.03;;;11.00;99.90;;;;;;5039063;28;20068;-74
2022/05/01 05:37:18;;;;;;;3.20;1.77;;;11.00;99.90;;;;;;5040354;28;20033;-74
2022/05/01 05:39:44;;;;;;;3.50;1.40;;;11.00;99.90;;;;;;5035878;28;20033;-74
2022/05/01 05:42:10;;;;;;;3.88;1.75;;;11.10;99.90;;;;;;5040904;28;20029;-73
2022/05/01 05:44:36;;;;;;;4.15;2.17;;;11.00;99.90;;;;;;5032775;28;20393;-73
2022/05/01 05:47:02;;;;;;;2.80;1.65;;;11.00;99.90;;;;;;5039776;28;20029;-73
2022/05/01 05:49:28;;;;;;;3.58;1.58;;;10.90;99.90;;;;;;5023864;28;20037;-74
2022/05/01 05:51:54;;;;;;;3.17;1.60;;;10.90;99.90;;;;;;5034669;28;20033;-73
2022/05/01 05:54:19;;;;;;;3.72;1.70;;;10.90;99.90;;;;;;5033599;28;20045;-74
2022/05/01 05:56:45;;;;;;;5.20;1.80;;;10.90;99.90;;;;;;5047826;28;20068;-74
2022/05/01 05:59:11;;;;;;;3.25;1.60;;;11.00;99.90;;;;;;5017986;28;20047;-73
2022/05/01 06:01:37;;;;;;;2.80;1.52;;;11.10;99.90;;;;;;5018428;28;20991;-73
2022/05/01 06:04:03;;;;;;;2.40;1.35;;;11.10;99.90;;;;;;5027906;28;20120;-73
2022/05/01 06:06:29;;;;;;;2.40;1.15;;;11.10;99.90;;;;;;5026344;28;20120;-74
2022/05/01 06:08:55;;;;;;;4.68;1.55;;;11.20;99.90;;;;;;5036503;28;20044;-74
2022/05/01 06:11:20;;;;;;;4.05;1.30;;;11.30;99.90;;;;;;5049681;28;20043;-74
2022/05/01 06:13:46;;;;;;;2.95;1.13;;;11.30;99.90;;;;;;5036191;28;20098;-74
2022/05/01 06:16:12;;;;;;;2.88;1.35;;;11.20;99.90;;;;;;5030986;28;20551;-74
2022/05/01 06:18:37;;;;;;;2.17;1.20;;;11.30;99.90;;;;;;5039693;28;20024;-74
2022/05/01 06:21:03;;;;;;;3.20;1.98;;;11.30;99.90;;;;;;5033207;28;20034;-73
2022/05/01 06:23:28;;;;;;;2.88;1.55;;;11.20;99.90;;;;;;5038347;28;20348;-74
2022/05/01 06:25:55;;;;;;;4.40;1.30;;;11.20;99.90;;;;;;5037687;28;20029;-73
2022/05/01 06:28:20;;;;;;;2.47;1.25;;;11.30;99.90;;;;;;5034344;28;20089;-73
2022/05/01 06:30:48;;;;;;;3.30;1.67;;;11.40;99.90;;;;;;5039399;28;20063;-74
2022/05/01 06:33:15;;;;;;;2.22;1.23;;;11.50;99.90;;;;;;5041797;28;20144;-74
2022/05/01 06:35:42;;;;;;;2.13;1.00;;;11.40;99.90;;;;;;5040009;28;20079;-74
2022/05/01 06:38:08;;;;;;;3.78;1.60;;;11.40;99.90;;;;;;5038825;28;20041;-74
2022/05/01 06:40:35;;;;;;;3.58;1.40;;;11.40;99.90;;;;;;5039785;28;20036;-74
2022/05/01 06:43:01;;;;;;;3.17;1.60;;;11.60;99.90;;;;;;5033673;28;20045;-73
2022/05/01 06:45:26;;;;;;;2.53;1.40;;;11.60;99.90;;;;;;5035201;28;20036;-74
2022/05/01 06:47:52;;;;;;;2.15;1.15;;;11.70;99.90;;;;;;5032683;28;20056;-74
2022/05/01 06:50:18;;;;;;;2.03;1.20;;;11.80;99.90;;;;;;5035903;28;20079;-75
2022/05/01 06:52:44;;;;;;;2.85;1.50;;;11.80;99.90;;;;;;5027134;28;20030;-74
2022/05/01 06:55:09;;;;;;;7.03;4.30;;;11.80;99.90;;;;;;5031464;28;20112;-73
2022/05/01 06:57:35;;;;;;;5.30;2.20;;;11.80;99.90;;;;;;5042589;28;20093;-74
2022/05/01 07:00:01;;;;;;;2.83;1.50;;;11.90;99.90;;;;;;5030484;28;20103;-75
2022/05/01 07:02:26;;;;;;;1.73;0.90;;;12.00;99.90;;;;;;5035421;28;20377;-76
2022/05/01 07:04:52;;;;;;;2.33;1.00;;;12.10;99.90;;;;;;5040558;28;20061;-73
2022/05/01 07:07:18;;;;;;;2.53;1.10;;;12.60;99.90;;;;;;5029197;28;20034;-74
2022/05/01 07:09:44;;;;;;;3.15;1.27;;;13.40;99.90;;;;;;5034728;28;20703;-76
2022/05/01 07:12:10;;;;;;;4.03;1.00;;;13.70;99.90;;;;;;5037726;28;20029;-73
2022/05/01 07:14:38;;;;;;;2.08;0.95;;;13.90;99.90;;;;;;5039966;28;20532;-74
2022/05/01 07:17:03;;;;;;;2.03;1.10;;;13.80;99.90;;;;;;5038930;28;20040;-73
2022/05/01 07:19:29;;;;;;;2.00;1.10;;;13.50;99.90;;;;;;5037624;28;20348;-74
2022/05/01 07:21:55;;;;;;;1.05;0.50;;;13.40;99.90;;;;;;5036738;28;20021;-75
2022/05/01 07:24:20;;;;;;;2.10;1.17;;;13.20;99.90;;;;;;5034236;28;20096;-75
2022/05/01 07:26:46;;;;;;;2.50;0.90;;;13.30;99.90;;;;;;5033373;28;20051;-75
2022/05/01 07:29:12;;;;;;;2.38;1.33;;;13.50;99.90;;;;;;5032904;28;20094;-75
2022/05/01 07:31:38;;;;;;;2.25;1.00;;;13.30;99.90;;;;;;5042530;28;20052;-75
2022/05/01 07:34:04;;;;;;;2.38;1.30;;;13.30;99.90;;;;;;5027508;28;20109;-74
2022/05/01 07:36:30;;;;;;;2.85;1.45;;;13.30;99.90;;;;;;5035650;28;20105;-76
2022/05/01 07:38:57;;;;;;;3.45;1.17;;;13.20;99.90;;;;;;5025838;28;20389;-78
2022/05/01 07:41:23;;;;;;;1.33;0.90;;;13.40;99.90;;;;;;5038907;28;20033;-75
2022/05/01 07:43:49;;;;;;;2.60;1.20;;;16.10;99.90;;;;;;5044586;28;20089;-77
2022/05/01 07:46:15;;;;;;;3.50;1.10;;;15.50;99.90;;;;;;5043262;28;20056;-76
2022/05/01 07:48:41;;;;;;;2.25;1.30;;;14.80;99.90;;;;;;5036636;28;20033;-75
2022/05/01 07:51:07;;;;;;;3.53;1.15;;;14.60;99.90;;;;;;5044645;28;20479;-76
2022/05/01 07:53:33;;;;;;;3.10;1.30;;;14.70;99.90;;;;;;5033393;28;20083;-76
2022/05/01 07:55:59;;;;;;;2.00;1.20;;;14.20;99.90;;;;;;5041184;28;20033;-77
2022/05/01 07:58:26;;;;;;;2.17;1.05;;;14.00;99.90;;;;;;5039224;28;20044;-75
2022/05/01 08:00:53;;;;;;;1.67;0.90;;;13.70;99.90;;;;;;5040004;28;20032;-76
2022/05/01 08:06:03;;;;;;;2.22;1.05;;;14.00;99.90;;;;;;5035639;28;20095;-75
2022/05/01 08:08:33;;;;;;;4.40;1.20;;;13.90;99.90;;;;;;5043126;28;20043;-75
2022/05/01 08:11:00;;;;;;;2.20;1.08;;;13.90;99.90;;;;;;5042380;28;20184;-75
2022/05/01 08:13:25;;;;;;;2.22;1.10;;;14.00;99.90;;;;;;5035693;28;20064;-74
2022/05/01 08:15:51;;;;;;;2.08;1.08;;;13.80;99.90;;;;;;5039855;28;20593;-74
2022/05/01 08:21:10;;;;;;;2.70;1.33;;;14.40;99.90;;;;;;5030691;28;20094;-75
2022/05/01 08:23:39;;;;;;;2.33;1.20;;;14.40;99.90;;;;;;5034831;28;20042;-75
2022/05/01 08:26:06;;;;;;;2.63;1.00;;;13.90;99.90;;;;;;5037580;28;20115;-78
2022/05/01 08:28:33;;;;;;;1.65;1.02;;;14.80;99.90;;;;;;5035562;28;20032;-74
2022/05/01 08:31:00;;;;;;;1.40;0.82;;;15.00;99.90;;;;;;5038721;28;20039;-76
2022/05/01 08:33:26;;;;;;;1.58;1.00;;;16.40;97.80;;;;;;5034915;28;20021;-75
2022/05/01 08:35:52;;;;;;;2.08;1.00;;;15.40;99.20;;;;;;5040546;28;20026;-76
2022/05/01 08:38:18;;;;;;;2.78;0.93;;;16.80;98.40;;;;;;5054560;28;20033;-73
2022/05/01 08:40:47;;;;;;;2.05;1.13;;;17.70;96.90;;;;;;5045950;28;20093;-76
2022/05/01 08:43:18;;;;;;;2.50;1.00;;;18.20;96.30;;;;;;5040662;28;20037;-76
2022/05/01 08:46:16;;;;;;;2.63;1.05;;;18.10;96.20;;;;;;5039657;28;20125;-75
2022/05/01 08:49:01;;;;;;;2.03;1.10;;;17.60;96.20;;;;;;5039436;28;20029;-76
2022/05/01 08:51:35;;;;;;;2.78;1.05;;;16.50;96.80;;;;;;5044169;28;20147;-74
2022/05/01 08:54:08;;;;;;;1.75;0.85;;;15.10;97.80;;;;;;5043492;28;20043;-73
2022/05/01 08:56:35;;;;;;;4.97;1.42;;;15.00;98.80;;;;;;5045318;28;20033;-72
2022/05/01 08:59:06;;;;;;;4.38;1.15;;;14.90;99.10;;;;;;5036990;28;20021;-74
2022/05/01 09:01:33;;;;;;;5.38;1.35;;;14.90;99.50;;;;;;5043708;28;20135;-75
2022/05/01 09:04:09;;;;;;;2.90;0.90;;;15.10;99.60;;;;;;5041047;28;20132;-76
2022/05/01 09:06:37;;;;;;;2.28;1.08;;;15.50;99.90;;;;;;5045535;28;20106;-73
2022/05/01 09:09:17;;;;;;;2.10;0.95;;;15.50;98.40;;;;;;5034105;28;20032;-72
2022/05/01 09:14:28;;;;;;;2.15;1.00;;;15.60;99.40;;;;;;5036206;28;20055;-72
2022/05/01 09:17:17;;;;;;;1.50;1.02;;;15.40;98.00;;;;;;5045265;28;20029;-73
2022/05/01 09:19:44;;;;;;;3.97;0.95;;;15.50;98.60;;;;;;5042391;28;20483;-74
2022/05/01 09:22:11;;;;;;;1.63;0.85;;;15.30;98.40;;;;;;5043923;28;20100;-73
2022/05/01 09:24:37;;;;;;;2.25;0.93;;;14.90;97.90;;;;;;5036530;28;20048;-73
2022/05/01 09:27:03;;;;;;;2.13;0.90;;;15.00;98.40;;;;;;5043505;28;20039;-72
2022/05/01 09:29:34;;;;;;;1.35;0.73;;;14.90;98.50;;;;;;5039620;28;20036;-72
2022/05/01 09:32:03;;;;;;;3.85;0.80;;;14.90;98.30;;;;;;5043429;28;20033;-74
2022/05/01 09:34:32;;;;;;;1.13;0.63;;;14.80;97.60;;;;;;5040925;28;20083;-73
2022/05/01 09:37:00;;;;;;;1.88;0.70;;;15.00;97.70;;;;;;5047257;28;20037;-73
2022/05/01 09:39:27;;;;;;;1.33;0.60;;;15.00;96.40;;;;;;5050116;28;20593;-72
2022/05/01 09:41:54;;;;;;;2.15;1.00;;;15.20;96.90;;;;;;5039574;28;20493;-73
2022/05/01 09:44:22;;;;;;;1.02;0.70;;;15.80;96.10;;;;;;5047430;28;20041;-73
2022/05/01 09:46:49;;;;;;;1.42;0.65;;;16.50;96.30;;;;;;5043810;28;20127;-73
2022/05/01 09:49:17;;;;;;;2.85;1.05;;;16.60;94.70;;;;;;5044041;28;20477;-73
2022/05/01 09:51:47;;;;;;;3.95;1.50;;;16.40;94.80;;;;;;5043563;28;20156;-73
2022/05/01 09:54:27;;;;;;;3.03;0.80;;;16.80;96.20;;;;;;5039630;28;20060;-73
2022/05/01 09:56:57;;;;;;;2.90;0.75;;;17.30;94.60;;;;;;5047082;28;20025;-73
2022/05/01 09:59:25;;;;;;;1.02;0.57;;;17.40;94.00;;;;;;5038985;28;20094;-73
2022/05/01 10:02:26;;;;;;;1.65;0.60;;;17.50;93.70;;;;;;5043296;28;20041;-73
2022/05/01 10:04:52;;;;;;;2.58;1.00;;;17.50;94.50;;;;;;5040307;28;20033;-73
2022/05/01 10:07:18;;;;;;;2.25;0.98;;;17.70;93.60;;;;;;5046986;28;20056;-74
2022/05/01 10:09:45;;;;;;;4.10;0.80;;;17.80;93.80;;;;;;5047377;28;20047;-74
2022/05/01 10:12:12;;;;;;;2.17;0.77;;;17.90;93.30;;;;;;5048703;28;20031;-73
2022/05/01 10:14:38;;;;;;;2.67;0.80;;;17.90;94.10;;;;;;5044583;28;20021;-72
2022/05/01 10:17:04;;;;;;;2.70;0.68;;;17.80;93.80;;;;;;5044082;28;20052;-73
2022/05/01 10:19:31;;;;;;;2.90;1.02;;;17.60;92.80;;;;;;5045447;28;20025;-72
2022/05/01 10:21:59;;;;;;;0.75;0.40;;;17.50;92.00;;;;;;5048335;28;20024;-73
2022/05/01 10:24:26;;;;;;;3.42;0.70;;;17.50;92.40;;;;;;5045906;28;20048;-73
2022/05/01 10:26:57;;;;;;;1.63;0.80;;;17.50;93.20;;;;;;5039934;28;20120;-72
2022/05/01 10:29:23;;;;;;;1.20;0.70;;;17.90;92.50;;;;;;5044230;28;20037;-73
2022/05/01 10:35:24;;;;;;;1.15;0.63;;;18.00;93.40;;;;;;5044420;28;20498;-74
2022/05/01 10:38:06;;;;;;;2.55;0.70;;;17.70;92.00;;;;;;5022478;28;20396;-75
2022/05/01 10:40:50;;;;;;;1.33;0.60;;;17.60;92.70;;;;;;5042061;28;20037;-74
2022/05/01 10:43:29;;;;;;;2.33;1.05;;;17.30;92.30;;;;;;5037549;28;20069;-74
2022/05/01 10:46:00;;;;;;;1.42;0.73;;;16.80;93.00;;;;;;5036306;28;20026;-73
2022/05/01 10:48:30;;;;;;;1.63;1.00;;;16.60;93.30;;;;;;5046039;28;20029;-73
2022/05/01 10:50:55;;;;;;;1.95;0.75;;;16.70;93.00;;;;;;5045741;28;20340;-73
2022/05/01 10:53:21;;;;;;;1.60;0.80;;;16.70;93.30;;;;;;5060519;28;20033;-72
2022/05/01 10:55:52;;;;;;;3.22;0.80;;;16.70;93.60;;;;;;5045725;28;20040;-73
2022/05/01 10:58:26;;;;;;;1.38;0.70;;;16.70;93.00;;;;;;5041891;28;20040;-73
2022/05/01 11:00:54;;;;;;;1.08;0.70;;;16.80;93.30;;;;;;5043997;28;20053;-72
2022/05/01 11:03:23;;;;;;;2.35;0.90;;;17.20;93.30;;;;;;5042094;28;20182;-73
2022/05/01 11:05:52;;;;;;;1.42;0.80;;;17.00;93.10;;;;;;5042328;28;20483;-73
2022/05/01 11:08:19;;;;;;;2.95;0.90;;;17.00;92.80;;;;;;5041670;28;20040;-73
2022/05/01 11:10:46;;;;;;;2.08;0.77;;;17.10;93.40;;;;;;5047493;28;20025;-77
2022/05/01 11:13:18;;;;;;;1.40;0.80;;;17.20;93.90;;;;;;5044048;28;20060;-72
2022/05/01 11:15:47;;;;;;;1.88;0.85;;;17.30;93.40;;;;;;5047931;28;20040;-73
2022/05/01 11:18:13;;;;;;;1.40;0.60;;;17.40;92.60;;;;;;5046916;28;20119;-74
2022/05/01 11:20:39;;;;;;;2.30;0.65;;;17.20;92.50;;;;;;5053327;28;20194;-73
2022/05/01 11:23:30;;;;;;;1.90;0.90;;;17.10;91.90;;;;;;5045289;28;20119;-75
2022/05/01 11:26:17;;;;;;;2.35;0.70;;;17.10;92.20;;;;;;5033833;28;20564;-73
2022/05/01 11:28:45;;;;;;;1.90;1.00;;;17.10;92.10;;;;;;5041250;28;20216;-73
2022/05/01 11:31:38;;;;;;;2.20;0.93;;;17.00;92.10;;;;;;5043899;28;20021;-74
2022/05/01 11:34:16;;;;;;;2.92;1.00;;;17.10;92.40;;;;;;5041647;28;20029;-73
2022/05/01 11:37:04;;;;;;;2.70;0.73;;;17.20;91.20;;;;;;5044591;28;20051;-73
2022/05/01 11:39:50;;;;;;;2.42;0.70;;;17.30;91.00;;;;;;5038379;28;20036;-73
2022/05/01 11:42:25;;;;;;;2.00;0.90;;;17.30;90.80;;;;;;5039831;28;20090;-73
2022/05/01 11:44:57;;;;;;;4.18;0.98;;;17.50;92.00;;;;;;5033852;28;20813;-72
2022/05/01 11:47:30;;;;;;;1.85;0.80;;;18.20;91.10;;;;;;5032124;28;20028;-71
2022/05/01 11:49:56;;;;;;;3.97;0.80;;;18.80;91.00;;;;;;5036817;28;20143;-74
2022/05/01 11:52:24;;;;;;;2.53;1.05;;;19.40;90.50;;;;;;5040740;28;20057;-73
2022/05/01 11:54:58;;;;;;;2.70;1.05;;;19.60;88.40;;;;;;5046133;28;20025;-73
2022/05/01 12:03:05;;;;;;;3.05;1.20;;;19.00;86.80;;;;;;5047159;28;20183;-74
2022/05/01 12:05:33;;;;;;;2.30;1.27;;;19.30;88.00;;;;;;5043515;28;20037;-73
2022/05/01 12:07:59;;;;;;;3.42;1.10;;;19.70;89.20;;;;;;5042139;28;20965;-73
2022/05/01 12:10:28;;;;;;;1.75;0.82;;;19.90;87.80;;;;;;5043569;28;20124;-73
2022/05/01 12:12:54;;;;;;;2.33;1.00;;;19.90;89.40;;;;;;5047272;28;20495;-73
2022/05/01 12:15:20;;;;;;;1.50;0.77;;;19.10;86.80;;;;;;5042992;28;20033;-73
2022/05/01 12:17:46;;;;;;;1.60;0.95;;;19.20;89.30;;;;;;5046152;28;20033;-74
2022/05/01 12:20:12;;;;;;;4.57;1.10;;;19.00;88.10;;;;;;5047102;28;20044;-73
2022/05/01 12:22:38;;;;;;;2.10;1.05;;;18.90;87.60;;;;;;5047191;28;20029;-74
2022/05/01 12:25:12;;;;;;;3.10;0.90;;;18.60;86.60;;;;;;5046369;28;20047;-73
2022/05/01 12:27:41;;;;;;;;;;;18.70;88.20;;;;;;5047884;28;20032;-74
2022/05/01 12:30:08;;;;;;;2.13;1.15;;;18.70;88.00;;;;;;5045858;28;19917;-74
2022/05/01 12:32:36;;;;;;;3.13;1.63;;;18.70;87.50;;;;;;5044495;28;20029;-74
2022/05/01 12:35:04;;;;;;;3.00;1.13;;;19.00;90.00;;;;;;5044687;28;20028;-73
2022/05/01 12:37:35;;;;;;;3.97;1.20;;;18.80;87.20;;;;;;5046258;28;20033;-73
2022/05/01 12:40:10;;;;;;;6.13;1.75;;;18.90;89.10;;;;;;5043439;28;20032;-73
2022/05/01 12:45:46;;;;;;;3.05;1.02;;;17.70;93.50;;;;;;5040372;28;20056;-73
2022/05/01 12:48:14;;;;;;;5.65;1.40;;;17.50;92.70;;;;;;5043519;28;20504;-73
2022/05/01 12:50:43;;;;;;;3.95;1.40;;;16.90;93.70;;;;;;5045832;28;20103;-73
2022/05/01 12:53:29;;;;;;;4.95;1.40;;;16.40;95.40;;;;;;5046790;28;20041;-73
2022/05/01 12:55:57;;;;;;;3.08;1.13;;;16.00;96.20;;;;;;5046860;28;20033;-73
2022/05/01 12:58:32;;;;;;;2.33;1.00;;;15.40;95.80;;;;;;5039254;28;20029;-73
2022/05/01 13:00:59;;;;;;;1.90;1.15;;;15.10;95.60;;;;;;5046916;28;20075;-73
2022/05/01 13:03:38;;;;;;;2.33;1.17;;;14.80;96.30;;;;;;5044690;28;20051;-72
2022/05/01 13:06:12;;;;;;;4.50;1.05;;;15.00;95.90;;;;;;5044861;28;20122;-73
2022/05/01 13:08:43;;;;;;;3.57;1.20;;;15.00;94.40;;;;;;5045123;28;20029;-73
2022/05/01 13:11:23;;;;;;;3.30;1.02;;;14.90;96.10;;;;;;5044306;28;20275;-74
2022/05/01 13:14:01;;;;;;;3.28;1.30;;;14.70;95.80;;;;;;5046330;28;20274;-73
2022/05/01 13:16:32;;;;;;;4.10;1.05;;;14.60;96.70;;;;;;5041500;28;20025;-72
2022/05/01 13:19:13;;;;;;;1.90;1.00;;;14.10;96.20;;;;;;5046150;28;20095;-75
2022/05/01 13:21:46;;;;;;;3.92;1.60;;;14.00;96.90;;;;;;5045214;28;20032;-72
2022/05/01 13:24:20;;;;;;;3.03;1.27;;;14.00;97.60;;;;;;5037603;28;20043;-73